Ostby, North Dakota
Current Conditions -  °F | °C
As of 9:55 AM on Friday 28 Nov 2014 (Local Time) from KRUG Reporting Station
Overcast Overcast  
Wind Chill: -23°   Ceiling: 2400
Heat Index: -13°   Visibility: 10mi
Dew Point: -15°   Wind: 17mph
Humidity: 85%   Direction: 110°ESE
Pressure: 29.82"   Gusts: NA
Location:  48.5496°N, 100.255°W
Report Text: KRUG 281555Z AUTO 11015KT 10SM SCT008 BKN024 OVC029 M13/M15 A2982 RMK AO2
Loading
Personal Weather Stations






























Interactive Weather Map New forecast layout! Learn more

10-Day Weather Forecast

Advertisements
Track Severe Weather on mobile